Time;durP1;ratioP1;P1;durP2;ratioP2;P2;SDS_P1;SDS_P2;PMS_P1;PMS_P2;Temp;Humidity;BMP_temperature;BMP_pressure;BME280_temperature;BME280_humidity;BME280_pressure;Samples;Min_cycle;Max_cycle;Signal;HPM_P1;HPM_P2
2023/10/27 00:01:29;;;;;;;86.17;45.80;;;;;;;;;;5009825;28;20037;-58
2023/10/27 00:03:54;;;;;;;88.43;44.33;;;;;;;;;;5011244;28;20539;-57
2023/10/27 00:06:20;;;;;;;88.93;46.40;;;;;;;;;;5010865;28;20397;-57
2023/10/27 00:08:45;;;;;;;89.13;46.33;;;;;;;;;;5011571;28;20018;-57
2023/10/27 00:11:10;;;;;;;96.32;50.97;;;;;;;;;;5009999;28;20484;-57
2023/10/27 00:13:35;;;;;;;92.07;48.22;;;;;;;;;;5012004;28;20028;-57
2023/10/27 00:16:05;;;;;;;84.93;44.77;;;;;;;;;;5009773;28;20054;-57
2023/10/27 00:18:31;;;;;;;101.25;47.58;;;;;;;;;;5011615;28;20030;-57
2023/10/27 00:20:56;;;;;;;88.78;45.38;;;;;;;;;;5009904;28;20041;-58
2023/10/27 00:23:22;;;;;;;93.32;43.60;;;;;;;;;;5011213;28;20030;-57
2023/10/27 00:25:47;;;;;;;91.72;48.97;;;;;;;;;;5010244;28;20057;-57
2023/10/27 00:28:12;;;;;;;84.83;46.43;;;;;;;;;;5011737;28;20082;-57
2023/10/27 00:30:37;;;;;;;87.40;42.43;;;;;;;;;;5009435;28;20589;-57
2023/10/27 00:33:02;;;;;;;89.03;49.73;;;;;;;;;;5011393;28;20028;-57
2023/10/27 00:35:28;;;;;;;97.53;47.50;;;;;;;;;;5009890;28;20615;-62
2023/10/27 00:37:53;;;;;;;95.00;46.83;;;;;;;;;;5010929;28;20030;-58
2023/10/27 00:40:18;;;;;;;99.45;49.58;;;;;;;;;;5009687;28;20082;-58
2023/10/27 00:42:43;;;;;;;105.17;46.23;;;;;;;;;;5011184;28;20061;-58
2023/10/27 00:45:08;;;;;;;98.70;47.88;;;;;;;;;;5009486;28;20030;-58
2023/10/27 00:47:33;;;;;;;98.80;45.13;;;;;;;;;;5011714;28;20022;-57
2023/10/27 00:49:59;;;;;;;86.10;45.40;;;;;;;;;;5009737;28;20514;-57
2023/10/27 00:52:25;;;;;;;105.85;48.63;;;;;;;;;;5010801;28;20022;-57
2023/10/27 00:54:51;;;;;;;99.97;50.25;;;;;;;;;;5009769;28;20408;-69
2023/10/27 00:57:16;;;;;;;95.90;48.45;;;;;;;;;;5011492;28;20026;-58
2023/10/27 00:59:41;;;;;;;106.00;47.15;;;;;;;;;;5009245;28;20022;-57
2023/10/27 01:02:07;;;;;;;114.32;48.00;;;;;;;;;;5010580;28;20030;-58
2023/10/27 01:04:32;;;;;;;106.40;48.97;;;;;;;;;;5009628;28;20018;-57
2023/10/27 01:06:57;;;;;;;104.95;49.85;;;;;;;;;;5010077;28;20045;-58
2023/10/27 01:09:22;;;;;;;102.80;48.75;;;;;;;;;;5011123;28;20018;-57
2023/10/27 01:11:48;;;;;;;101.28;47.95;;;;;;;;;;5009695;28;20076;-60
2023/10/27 01:14:13;;;;;;;105.45;46.95;;;;;;;;;;5010395;28;20018;-58
2023/10/27 01:16:38;;;;;;;107.93;51.10;;;;;;;;;;5009344;28;20034;-58
2023/10/27 01:19:04;;;;;;;114.97;48.08;;;;;;;;;;5010707;28;20509;-57
2023/10/27 01:21:29;;;;;;;99.67;45.70;;;;;;;;;;5009228;28;20045;-57
2023/10/27 01:23:54;;;;;;;106.07;46.85;;;;;;;;;;5010644;28;20495;-58
2023/10/27 01:26:19;;;;;;;112.20;49.97;;;;;;;;;;5009169;28;20033;-57
2023/10/27 01:28:45;;;;;;;108.13;47.23;;;;;;;;;;5011481;28;20424;-57
2023/10/27 01:31:10;;;;;;;105.03;49.50;;;;;;;;;;5013174;28;20457;-58
2023/10/27 01:33:35;;;;;;;106.27;45.53;;;;;;;;;;5014603;28;20488;-57
2023/10/27 01:36:00;;;;;;;107.60;49.67;;;;;;;;;;5012601;28;20808;-58
2023/10/27 01:38:25;;;;;;;111.53;49.28;;;;;;;;;;5014681;28;20030;-58
2023/10/27 01:40:51;;;;;;;118.68;47.78;;;;;;;;;;5013041;28;20108;-58
2023/10/27 01:43:16;;;;;;;112.53;45.90;;;;;;;;;;5014156;28;20021;-58
2023/10/27 01:45:41;;;;;;;109.70;45.63;;;;;;;;;;5012971;28;20632;-58
2023/10/27 01:48:06;;;;;;;109.53;47.95;;;;;;;;;;5014634;28;20456;-58
2023/10/27 01:50:31;;;;;;;101.57;47.15;;;;;;;;;;5012804;28;20036;-58
2023/10/27 01:52:57;;;;;;;115.93;50.65;;;;;;;;;;5014203;28;20346;-58
2023/10/27 01:55:24;;;;;;;97.32;45.85;;;;;;;;;;5012938;28;20112;-58
2023/10/27 01:57:49;;;;;;;111.13;51.38;;;;;;;;;;5013643;28;20022;-58
2023/10/27 02:00:14;;;;;;;105.68;51.40;;;;;;;;;;5012858;28;20045;-63
2023/10/27 02:02:40;;;;;;;110.70;49.42;;;;;;;;;;5014104;28;20625;-58
2023/10/27 02:05:05;;;;;;;108.30;49.20;;;;;;;;;;5011962;28;20036;-58
2023/10/27 02:07:31;;;;;;;95.05;47.83;;;;;;;;;;5013957;28;20018;-58
2023/10/27 02:09:59;;;;;;;108.95;53.38;;;;;;;;;;5012625;28;20030;-58
2023/10/27 02:12:25;;;;;;;117.55;50.17;;;;;;;;;;5014110;28;20105;-58
2023/10/27 02:14:50;;;;;;;135.32;52.65;;;;;;;;;;5012528;28;20120;-57
2023/10/27 02:17:15;;;;;;;112.40;50.70;;;;;;;;;;5013507;28;20026;-57
2023/10/27 02:19:40;;;;;;;110.23;51.80;;;;;;;;;;5012427;28;20076;-57
2023/10/27 02:22:05;;;;;;;97.63;48.20;;;;;;;;;;5013106;28;20452;-58
2023/10/27 02:24:31;;;;;;;108.47;49.23;;;;;;;;;;5012597;28;20064;-63
2023/10/27 02:26:58;;;;;;;105.37;48.53;;;;;;;;;;5013666;28;20018;-58
2023/10/27 02:29:23;;;;;;;106.03;45.28;;;;;;;;;;5013617;28;20496;-58
2023/10/27 02:31:48;;;;;;;105.93;46.33;;;;;;;;;;5010944;28;20113;-58
2023/10/27 02:34:13;;;;;;;98.25;44.97;;;;;;;;;;5013257;28;20084;-64
2023/10/27 02:36:38;;;;;;;110.82;49.75;;;;;;;;;;5011766;28;20559;-57
2023/10/27 02:39:03;;;;;;;105.45;47.70;;;;;;;;;;5013304;28;20108;-57
2023/10/27 02:41:29;;;;;;;105.07;51.00;;;;;;;;;;5012057;28;20041;-58
2023/10/27 02:43:56;;;;;;;108.38;49.30;;;;;;;;;;5012713;28;20047;-58
2023/10/27 02:46:21;;;;;;;103.32;48.20;;;;;;;;;;5011836;28;20042;-59
2023/10/27 02:48:46;;;;;;;107.00;46.30;;;;;;;;;;5013656;28;20075;-58
2023/10/27 02:51:11;;;;;;;114.28;51.28;;;;;;;;;;5011233;28;20086;-58
2023/10/27 02:53:36;;;;;;;117.07;50.97;;;;;;;;;;5013421;28;20026;-59
2023/10/27 02:56:06;;;;;;;107.60;47.80;;;;;;;;;;5011566;28;20125;-58
2023/10/27 02:58:31;;;;;;;115.03;45.75;;;;;;;;;;5012857;28;20029;-58
2023/10/27 03:00:56;;;;;;;112.93;50.53;;;;;;;;;;5011251;28;20034;-71
2023/10/27 03:03:21;;;;;;;123.97;52.58;;;;;;;;;;5012939;28;20459;-58
2023/10/27 03:05:46;;;;;;;110.70;50.13;;;;;;;;;;5011154;28;20040;-59
2023/10/27 03:08:12;;;;;;;100.38;48.42;;;;;;;;;;5012994;28;20084;-68
2023/10/27 03:10:37;;;;;;;108.67;48.93;;;;;;;;;;5011764;28;20044;-59
2023/10/27 03:13:08;;;;;;;104.33;48.87;;;;;;;;;;5012237;28;20437;-59
2023/10/27 03:15:33;;;;;;;105.25;49.13;;;;;;;;;;5011389;28;20038;-59
2023/10/27 03:17:58;;;;;;;107.80;49.97;;;;;;;;;;5012813;28;20037;-59
2023/10/27 03:20:23;;;;;;;111.95;54.25;;;;;;;;;;5010754;28;20869;-58
2023/10/27 03:22:48;;;;;;;115.40;51.47;;;;;;;;;;5012494;28;20025;-59
2023/10/27 03:25:13;;;;;;;107.80;51.92;;;;;;;;;;5011008;28;20129;-58
2023/10/27 03:27:38;;;;;;;103.13;48.60;;;;;;;;;;5012485;28;20014;-59
2023/10/27 03:30:04;;;;;;;107.53;46.70;;;;;;;;;;5011304;28;20042;-58
2023/10/27 03:32:29;;;;;;;110.75;51.85;;;;;;;;;;5012375;28;20457;-58
2023/10/27 03:34:54;;;;;;;118.28;51.17;;;;;;;;;;5010111;28;20042;-59
2023/10/27 03:37:19;;;;;;;118.65;51.40;;;;;;;;;;5012693;28;20021;-59
2023/10/27 03:39:45;;;;;;;112.63;53.03;;;;;;;;;;5010735;28;20037;-58
2023/10/27 03:42:10;;;;;;;112.40;48.63;;;;;;;;;;5011763;28;20022;-59
2023/10/27 03:44:35;;;;;;;118.30;53.10;;;;;;;;;;5010741;28;20018;-58
2023/10/27 03:47:00;;;;;;;112.35;49.80;;;;;;;;;;5012375;28;20376;-59
2023/10/27 03:49:27;;;;;;;109.95;49.13;;;;;;;;;;5011640;28;20106;-59
2023/10/27 03:51:52;;;;;;;121.07;50.03;;;;;;;;;;5010113;28;20452;-59
2023/10/27 03:54:18;;;;;;;107.07;49.38;;;;;;;;;;5012092;28;20025;-59
2023/10/27 03:56:43;;;;;;;115.47;51.33;;;;;;;;;;5010399;28;20062;-59
2023/10/27 03:59:10;;;;;;;124.77;51.67;;;;;;;;;;5011755;28;20448;-59
2023/10/27 04:01:35;;;;;;;120.38;52.95;;;;;;;;;;5010627;28;20453;-59
2023/10/27 04:04:00;;;;;;;92.47;45.40;;;;;;;;;;5011212;28;20028;-59
2023/10/27 04:06:25;;;;;;;104.70;49.45;;;;;;;;;;5010566;28;20472;-60
2023/10/27 04:08:51;;;;;;;111.28;49.50;;;;;;;;;;5011294;28;20021;-58
2023/10/27 04:11:16;;;;;;;95.13;49.43;;;;;;;;;;5009165;28;20040;-58
2023/10/27 04:13:41;;;;;;;91.63;47.30;;;;;;;;;;5011631;28;20448;-58
2023/10/27 04:16:06;;;;;;;99.45;44.60;;;;;;;;;;5009597;28;21048;-57
2023/10/27 04:18:31;;;;;;;106.33;41.03;;;;;;;;;;5011253;28;20017;-58
2023/10/27 04:20:56;;;;;;;103.47;46.23;;;;;;;;;;5010027;28;20042;-57
2023/10/27 04:23:22;;;;;;;105.37;49.40;;;;;;;;;;5011381;28;20017;-57
2023/10/27 04:25:47;;;;;;;112.23;48.37;;;;;;;;;;5009303;28;20465;-57
2023/10/27 04:28:12;;;;;;;104.47;44.45;;;;;;;;;;5011149;28;20013;-58
2023/10/27 04:30:38;;;;;;;113.40;47.90;;;;;;;;;;5009865;28;20113;-58
2023/10/27 04:33:05;;;;;;;93.45;40.53;;;;;;;;;;5010915;28;20026;-58
2023/10/27 04:35:31;;;;;;;90.75;43.95;;;;;;;;;;5009453;28;20065;-58
2023/10/27 04:37:58;;;;;;;98.17;47.47;;;;;;;;;;5010857;28;20060;-58
2023/10/27 04:40:24;;;;;;;89.85;44.05;;;;;;;;;;5009784;28;20457;-58
2023/10/27 04:42:49;;;;;;;95.60;44.67;;;;;;;;;;5011081;28;20534;-58
2023/10/27 04:45:14;;;;;;;90.27;42.03;;;;;;;;;;5010144;28;20037;-58
2023/10/27 04:47:39;;;;;;;87.07;44.30;;;;;;;;;;5011375;28;20049;-58
2023/10/27 04:50:05;;;;;;;103.77;50.33;;;;;;;;;;5009279;28;20062;-58
2023/10/27 04:52:30;;;;;;;98.88;44.22;;;;;;;;;;5011408;28;20022;-58
2023/10/27 04:54:55;;;;;;;106.10;45.90;;;;;;;;;;5009867;28;20506;-60
2023/10/27 04:57:21;;;;;;;104.28;46.20;;;;;;;;;;5011036;28;20014;-57
2023/10/27 04:59:46;;;;;;;97.25;45.05;;;;;;;;;;5009914;28;20022;-57
2023/10/27 05:02:12;;;;;;;104.85;44.63;;;;;;;;;;5010917;28;20018;-57
2023/10/27 05:04:37;;;;;;;97.60;40.38;;;;;;;;;;5008499;28;20469;-57
2023/10/27 05:07:03;;;;;;;89.03;41.87;;;;;;;;;;5011208;28;20014;-57
2023/10/27 05:09:28;;;;;;;86.75;42.20;;;;;;;;;;5011328;28;20358;-58
2023/10/27 05:11:53;;;;;;;91.33;40.63;;;;;;;;;;5007671;28;20061;-57
2023/10/27 05:14:19;;;;;;;87.50;40.92;;;;;;;;;;5011123;28;20554;-57
2023/10/27 05:16:45;;;;;;;90.43;42.60;;;;;;;;;;5009483;28;20567;-57
2023/10/27 05:19:12;;;;;;;92.30;41.78;;;;;;;;;;5010701;28;21027;-56
2023/10/27 05:21:37;;;;;;;101.90;41.13;;;;;;;;;;5026655;28;20033;-67
2023/10/27 05:24:02;;;;;;;95.88;43.38;;;;;;;;;;5030051;28;20075;-57
2023/10/27 05:26:28;;;;;;;98.10;44.97;;;;;;;;;;5029036;28;20048;-57
2023/10/27 05:28:53;;;;;;;95.60;39.00;;;;;;;;;;5030583;28;20102;-57
2023/10/27 05:31:18;;;;;;;84.33;40.10;;;;;;;;;;5029151;28;20436;-57
2023/10/27 05:33:43;;;;;;;96.87;45.77;;;;;;;;;;5030068;28;20041;-56
2023/10/27 05:36:08;;;;;;;93.18;40.75;;;;;;;;;;5028631;28;20854;-57
2023/10/27 05:38:34;;;;;;;102.63;44.75;;;;;;;;;;5029907;28;20025;-56
2023/10/27 05:40:59;;;;;;;115.70;41.97;;;;;;;;;;5016536;28;20049;-56
2023/10/27 05:43:24;;;;;;;107.90;41.08;;;;;;;;;;5010823;28;20064;-57
2023/10/27 05:45:49;;;;;;;94.95;41.03;;;;;;;;;;5019923;28;20148;-56
2023/10/27 05:48:15;;;;;;;97.13;41.20;;;;;;;;;;5029777;28;20022;-56
2023/10/27 05:50:40;;;;;;;95.23;37.37;;;;;;;;;;5028872;28;20033;-56
2023/10/27 05:53:05;;;;;;;96.78;41.88;;;;;;;;;;5030462;28;20487;-57
2023/10/27 05:55:30;;;;;;;105.20;39.63;;;;;;;;;;5028621;28;20488;-58
2023/10/27 05:57:55;;;;;;;105.53;43.83;;;;;;;;;;5030275;28;20029;-56
2023/10/27 06:00:21;;;;;;;102.63;42.60;;;;;;;;;;5028947;28;20034;-57
2023/10/27 06:02:48;;;;;;;103.95;44.95;;;;;;;;;;5029626;28;20039;-62
2023/10/27 06:05:13;;;;;;;103.15;44.15;;;;;;;;;;5028783;28;20029;-56
2023/10/27 06:07:38;;;;;;;94.70;45.57;;;;;;;;;;5030398;28;20380;-56
2023/10/27 06:10:04;;;;;;;117.53;47.60;;;;;;;;;;5028296;28;20567;-56
2023/10/27 06:12:29;;;;;;;110.03;44.58;;;;;;;;;;5030222;28;20041;-56
2023/10/27 06:14:54;;;;;;;106.77;43.67;;;;;;;;;;5029680;28;20045;-57
2023/10/27 06:17:19;;;;;;;105.57;45.47;;;;;;;;;;5033483;28;20028;-57
2023/10/27 06:19:44;;;;;;;116.67;44.07;;;;;;;;;;5032271;28;20021;-57
2023/10/27 06:22:09;;;;;;;116.85;46.63;;;;;;;;;;5033660;28;20032;-57
2023/10/27 06:24:35;;;;;;;118.43;47.28;;;;;;;;;;5031707;28;20381;-56
2023/10/27 06:27:00;;;;;;;124.20;48.10;;;;;;;;;;5033664;28;20021;-69
2023/10/27 06:29:25;;;;;;;95.95;40.58;;;;;;;;;;5033523;28;20400;-57
2023/10/27 06:31:50;;;;;;;119.35;48.13;;;;;;;;;;5031944;28;20030;-57
2023/10/27 06:34:15;;;;;;;94.88;39.70;;;;;;;;;;5033411;28;20046;-60
2023/10/27 06:36:40;;;;;;;98.53;44.07;;;;;;;;;;5030469;28;20037;-57
2023/10/27 06:39:06;;;;;;;110.95;42.42;;;;;;;;;;5032635;28;20804;-57
2023/10/27 06:41:31;;;;;;;98.10;39.97;;;;;;;;;;5031733;28;20045;-57
2023/10/27 06:43:56;;;;;;;93.93;41.03;;;;;;;;;;5032890;28;20451;-57
2023/10/27 06:46:22;;;;;;;99.63;41.83;;;;;;;;;;5031515;28;20025;-57
2023/10/27 06:48:47;;;;;;;98.70;36.78;;;;;;;;;;5033452;28;20017;-57
2023/10/27 06:51:12;;;;;;;117.73;43.07;;;;;;;;;;5031299;28;20493;-57
2023/10/27 06:53:37;;;;;;;86.88;33.88;;;;;;;;;;5032582;28;20120;-57
2023/10/27 06:56:03;;;;;;;91.65;37.72;;;;;;;;;;5031389;28;20095;-57
2023/10/27 06:58:28;;;;;;;86.75;36.13;;;;;;;;;;5033046;28;20029;-58
2023/10/27 07:00:53;;;;;;;87.97;32.90;;;;;;;;;;5031032;28;20400;-57
2023/10/27 07:03:18;;;;;;;71.80;33.90;;;;;;;;;;5032403;28;20440;-57
2023/10/27 07:05:44;;;;;;;71.43;32.53;;;;;;;;;;5031259;28;20026;-57
2023/10/27 07:08:09;;;;;;;71.93;30.98;;;;;;;;;;5032611;28;20017;-57
2023/10/27 07:10:34;;;;;;;92.90;32.33;;;;;;;;;;5031000;28;20026;-57
2023/10/27 07:13:00;;;;;;;68.68;27.67;;;;;;;;;;5031976;28;20071;-57
2023/10/27 07:15:25;;;;;;;67.07;28.57;;;;;;;;;;5030153;28;20033;-57
2023/10/27 07:17:51;;;;;;;68.50;27.47;;;;;;;;;;5031440;28;20100;-57
2023/10/27 07:20:16;;;;;;;67.22;29.75;;;;;;;;;;5030647;28;20034;-57
2023/10/27 07:22:41;;;;;;;69.63;26.80;;;;;;;;;;5031621;28;20619;-57
2023/10/27 07:25:07;;;;;;;49.20;25.40;;;;;;;;;;5029527;28;20532;-57
2023/10/27 07:27:33;;;;;;;69.53;27.52;;;;;;;;;;5030556;28;20024;-57
2023/10/27 07:29:58;;;;;;;59.55;26.77;;;;;;;;;;5031069;28;20032;-57
2023/10/27 07:32:23;;;;;;;54.80;24.03;;;;;;;;;;5032092;28;20014;-62
2023/10/27 07:34:49;;;;;;;59.00;25.95;;;;;;;;;;5030762;28;20052;-56
2023/10/27 07:37:14;;;;;;;58.20;23.15;;;;;;;;;;5032324;28;20021;-57
2023/10/27 07:39:40;;;;;;;58.58;24.95;;;;;;;;;;5030402;28;20072;-56
2023/10/27 07:42:07;;;;;;;50.75;23.30;;;;;;;;;;5032122;28;20024;-57
2023/10/27 07:44:32;;;;;;;55.40;24.48;;;;;;;;;;5031232;28;20060;-54
2023/10/27 07:46:57;;;;;;;50.90;20.80;;;;;;;;;;5031615;28;20048;-66
2023/10/27 07:49:23;;;;;;;53.53;23.17;;;;;;;;;;5032193;28;20467;-57
2023/10/27 07:51:49;;;;;;;45.42;20.10;;;;;;;;;;5030606;28;20542;-57
2023/10/27 07:54:14;;;;;;;40.15;18.65;;;;;;;;;;5031660;28;20029;-57
2023/10/27 07:56:40;;;;;;;46.10;19.98;;;;;;;;;;5030496;28;20581;-57
2023/10/27 07:59:05;;;;;;;43.20;20.90;;;;;;;;;;5031504;28;20032;-57
2023/10/27 08:01:30;;;;;;;41.03;20.77;;;;;;;;;;5030086;28;20052;-57
2023/10/27 08:03:56;;;;;;;38.33;19.55;;;;;;;;;;5031535;28;20376;-62
2023/10/27 08:06:21;;;;;;;39.25;20.20;;;;;;;;;;5028902;28;20034;-57
2023/10/27 08:08:46;;;;;;;43.00;20.58;;;;;;;;;;5031562;28;20014;-57
2023/10/27 08:11:17;;;;;;;39.67;19.40;;;;;;;;;;5030023;28;20485;-57
2023/10/27 08:13:42;;;;;;;45.33;19.73;;;;;;;;;;5031399;28;20428;-57
2023/10/27 08:16:07;;;;;;;36.40;17.43;;;;;;;;;;5029520;28;20037;-57
2023/10/27 08:18:32;;;;;;;35.23;17.57;;;;;;;;;;5031393;28;20420;-57
2023/10/27 08:20:58;;;;;;;44.13;19.53;;;;;;;;;;5025954;28;20539;-57
2023/10/27 08:23:23;;;;;;;40.27;18.87;;;;;;;;;;5030924;28;20033;-66
2023/10/27 08:25:50;;;;;;;43.88;20.20;;;;;;;;;;5029970;28;20518;-57
2023/10/27 08:28:15;;;;;;;37.78;20.10;;;;;;;;;;5031102;28;20014;-57
2023/10/27 08:30:42;;;;;;;37.67;18.80;;;;;;;;;;5029600;28;20113;-57
2023/10/27 08:33:08;;;;;;;40.55;22.58;;;;;;;;;;5031018;28;20429;-57
2023/10/27 08:35:33;;;;;;;36.28;17.83;;;;;;;;;;5029505;28;20069;-57
2023/10/27 08:37:58;;;;;;;37.95;20.38;;;;;;;;;;5029999;28;20022;-58
2023/10/27 08:40:23;;;;;;;39.42;21.10;;;;;;;;;;5021570;28;20038;-57
2023/10/27 08:42:49;;;;;;;37.03;20.13;;;;;;;;;;5009698;28;20096;-57
2023/10/27 08:45:15;;;;;;;47.10;23.88;;;;;;;;;;5009598;28;20026;-57
2023/10/27 08:47:40;;;;;;;39.35;23.05;;;;;;;;;;5011696;28;20042;-57
2023/10/27 08:50:06;;;;;;;45.43;22.50;;;;;;;;;;5009587;28;20026;-57
2023/10/27 08:52:31;;;;;;;41.67;21.65;;;;;;;;;;5010970;28;20025;-57
2023/10/27 08:55:00;;;;;;;51.83;25.60;;;;;;;;;;5009474;28;20037;-57
2023/10/27 08:57:25;;;;;;;;;;;;;;;;;;5011751;28;20148;-57
2023/10/27 08:59:50;;;;;;;45.55;23.48;;;;;;;;;;5009471;28;20067;-57
2023/10/27 09:02:26;;;;;;;38.27;23.50;;;;;;;;;;5010822;28;20091;-57
2023/10/27 09:04:59;;;;;;;46.05;23.17;;;;;;;;;;5009406;28;20505;-57
2023/10/27 09:07:24;;;;;;;41.88;22.30;;;;;;;;;;5010873;28;20017;-57
2023/10/27 09:09:49;;;;;;;34.40;21.10;;;;;;;;;;5008109;28;20037;-57
2023/10/27 09:12:22;;;;;;;42.38;22.80;;;;;;;;;;5010845;28;20014;-57
2023/10/27 09:14:57;;;;;;;39.60;23.08;;;;;;;;;;5009463;28;20388;-57
2023/10/27 09:17:22;;;;;;;40.28;22.02;;;;;;;;;;5011069;28;20043;-57
2023/10/27 09:19:47;;;;;;;43.90;24.77;;;;;;;;;;5009540;28;20033;-71
2023/10/27 09:22:13;;;;;;;42.33;24.90;;;;;;;;;;5018917;28;20794;-57
2023/10/27 09:24:38;;;;;;;43.00;22.73;;;;;;;;;;5028793;28;20033;-57
2023/10/27 09:27:04;;;;;;;43.83;23.17;;;;;;;;;;5030267;28;20018;-57
2023/10/27 09:29:38;;;;;;;40.90;22.38;;;;;;;;;;5030142;28;20028;-57
2023/10/27 09:32:04;;;;;;;40.30;24.85;;;;;;;;;;5028558;28;20045;-57
2023/10/27 09:34:31;;;;;;;42.72;25.70;;;;;;;;;;5030509;28;20078;-57
2023/10/27 09:36:58;;;;;;;42.95;24.10;;;;;;;;;;5028561;28;20133;-57
2023/10/27 09:39:23;;;;;;;33.72;23.05;;;;;;;;;;5029466;28;20021;-57
2023/10/27 09:41:55;;;;;;;42.47;22.42;;;;;;;;;;5029072;28;20386;-57
2023/10/27 09:44:23;;;;;;;39.85;22.67;;;;;;;;;;5030067;28;20025;-57
2023/10/27 09:46:54;;;;;;;33.35;19.20;;;;;;;;;;5029053;28;20665;-57
2023/10/27 09:49:24;;;;;;;32.47;22.67;;;;;;;;;;5030687;28;20096;-57
2023/10/27 09:51:51;;;;;;;33.22;23.15;;;;;;;;;;5032443;28;20037;-57
2023/10/27 09:54:16;;;;;;;35.15;22.38;;;;;;;;;;5034562;28;20029;-66
2023/10/27 09:56:42;;;;;;;37.87;23.33;;;;;;;;;;5032698;28;20044;-57
2023/10/27 09:59:07;;;;;;;34.08;21.42;;;;;;;;;;5033466;28;20452;-57
2023/10/27 10:01:32;;;;;;;35.07;22.13;;;;;;;;;;5032768;28;20064;-58
2023/10/27 10:03:58;;;;;;;43.08;24.10;;;;;;;;;;5033426;28;20456;-57
2023/10/27 10:06:23;;;;;;;35.22;21.10;;;;;;;;;;5022292;28;20034;-57
2023/10/27 10:09:10;;;;;;;32.90;19.77;;;;;;;;;;5023863;28;20029;-57
2023/10/27 10:11:47;;;;;;;36.65;22.25;;;;;;;;;;5032566;28;20033;-57
2023/10/27 10:14:31;;;;;;;37.75;21.30;;;;;;;;;;5033195;28;20021;-57
2023/10/27 10:16:56;;;;;;;36.50;24.60;;;;;;;;;;5031729;28;20044;-57
2023/10/27 10:19:40;;;;;;;38.20;21.65;;;;;;;;;;5033803;28;20021;-57
2023/10/27 10:22:05;;;;;;;32.70;21.35;;;;;;;;;;5031441;28;20444;-57
2023/10/27 10:24:30;;;;;;;28.67;20.03;;;;;;;;;;5015020;28;20053;-56
2023/10/27 10:27:02;;;;;;;32.58;20.02;;;;;;;;;;5031503;28;20037;-57
2023/10/27 10:29:28;;;;;;;35.30;21.05;;;;;;;;;;5032851;28;20013;-57
2023/10/27 10:32:13;;;;;;;32.42;19.60;;;;;;;;;;5031376;28;20095;-57
2023/10/27 10:34:38;;;;;;;32.28;21.08;;;;;;;;;;5031236;28;20042;-57
2023/10/27 10:37:36;;;;;;;36.93;24.97;;;;;;;;;;5032240;28;20017;-57
2023/10/27 10:40:22;;;;;;;29.13;19.90;;;;;;;;;;5019202;28;20451;-57
2023/10/27 10:43:06;;;;;;;34.38;22.60;;;;;;;;;;5032909;28;20035;-57
2023/10/27 10:45:42;;;;;;;40.00;26.42;;;;;;;;;;5031875;28;20029;-57
2023/10/27 10:48:07;;;;;;;34.92;19.05;;;;;;;;;;5032391;28;20024;-58
2023/10/27 10:50:33;;;;;;;27.93;19.03;;;;;;;;;;5030594;28;20041;-57
2023/10/27 10:53:16;;;;;;;27.27;19.23;;;;;;;;;;5032970;28;20173;-57
2023/10/27 10:55:45;;;;;;;25.60;19.27;;;;;;;;;;5021853;28;20124;-57
2023/10/27 10:58:10;;;;;;;;;;;;;;;;;;5013256;28;20046;-57
2023/10/27 11:00:35;;;;;;;24.58;18.48;;;;;;;;;;5011085;28;20020;-57
2023/10/27 11:03:10;;;;;;;28.27;21.45;;;;;;;;;;5011550;28;20029;-57
2023/10/27 11:05:36;;;;;;;29.20;20.90;;;;;;;;;;5009293;28;20125;-57
2023/10/27 11:08:02;;;;;;;30.02;22.92;;;;;;;;;;5012796;28;20284;-57
2023/10/27 11:10:27;;;;;;;25.15;19.05;;;;;;;;;;5009650;28;20040;-57
2023/10/27 11:12:53;;;;;;;23.00;19.90;;;;;;;;;;5010813;28;20014;-57
2023/10/27 11:15:36;;;;;;;26.97;20.40;;;;;;;;;;5009976;28;20088;-57
2023/10/27 11:18:10;;;;;;;24.13;18.65;;;;;;;;;;5011107;28;20052;-57
2023/10/27 11:20:38;;;;;;;24.35;19.23;;;;;;;;;;5009493;28;20030;-57
2023/10/27 11:23:10;;;;;;;25.67;19.13;;;;;;;;;;5010919;28;20037;-57
2023/10/27 11:25:35;;;;;;;28.08;22.45;;;;;;;;;;5007829;28;20125;-57
2023/10/27 11:28:19;;;;;;;26.98;21.00;;;;;;;;;;4992642;28;20105;-57
2023/10/27 11:31:05;;;;;;;24.83;19.40;;;;;;;;;;5001647;28;20057;-57
2023/10/27 11:33:31;;;;;;;24.38;18.92;;;;;;;;;;5016378;28;20030;-56
2023/10/27 11:35:57;;;;;;;23.80;18.20;;;;;;;;;;5022166;28;20041;-57
2023/10/27 11:38:23;;;;;;;25.55;20.23;;;;;;;;;;5013762;28;20022;-60
2023/10/27 11:40:48;;;;;;;27.70;19.60;;;;;;;;;;5011014;28;20049;-57
2023/10/27 11:43:13;;;;;;;26.10;19.25;;;;;;;;;;5011682;28;20021;-57
2023/10/27 11:45:38;;;;;;;26.73;18.90;;;;;;;;;;5010993;28;20034;-57
2023/10/27 11:48:04;;;;;;;28.30;20.30;;;;;;;;;;5011905;28;20022;-57
2023/10/27 11:50:29;;;;;;;22.85;19.42;;;;;;;;;;5010370;28;20389;-57
2023/10/27 11:52:54;;;;;;;25.92;17.98;;;;;;;;;;5011196;28;20030;-57
2023/10/27 11:55:19;;;;;;;25.93;20.97;;;;;;;;;;5010073;28;20097;-57
2023/10/27 11:57:44;;;;;;;26.97;19.80;;;;;;;;;;5011507;28;20026;-57
2023/10/27 12:00:10;;;;;;;27.93;19.67;;;;;;;;;;5009956;28;20058;-57
2023/10/27 12:02:35;;;;;;;28.30;20.73;;;;;;;;;;5011481;28;20026;-57
2023/10/27 12:05:00;;;;;;;27.30;18.90;;;;;;;;;;5009241;28;20057;-57
2023/10/27 12:07:25;;;;;;;26.25;20.52;;;;;;;;;;5012133;28;20080;-57
2023/10/27 12:09:50;;;;;;;26.80;19.27;;;;;;;;;;5010121;28;20389;-57
2023/10/27 12:12:16;;;;;;;26.08;19.63;;;;;;;;;;5010766;28;20097;-57
2023/10/27 12:14:41;;;;;;;21.88;18.90;;;;;;;;;;5010418;28;20030;-57
2023/10/27 12:17:06;;;;;;;22.45;17.85;;;;;;;;;;5011667;28;20014;-57
2023/10/27 12:19:31;;;;;;;23.13;19.00;;;;;;;;;;5010261;28;20036;-57
2023/10/27 12:21:57;;;;;;;19.77;17.63;;;;;;;;;;5011259;28;20021;-57
2023/10/27 12:24:22;;;;;;;20.58;16.10;;;;;;;;;;5011124;28;20592;-57
2023/10/27 12:26:47;;;;;;;22.77;17.87;;;;;;;;;;5009604;28;20041;-57
2023/10/27 12:29:13;;;;;;;20.30;16.80;;;;;;;;;;5011228;28;20132;-57
2023/10/27 12:31:38;;;;;;;20.47;16.43;;;;;;;;;;5010025;28;20038;-57
2023/10/27 12:34:04;;;;;;;20.60;17.52;;;;;;;;;;5009974;28;20491;-57
2023/10/27 12:36:29;;;;;;;25.45;17.95;;;;;;;;;;5009748;28;20120;-57
2023/10/27 12:38:54;;;;;;;19.77;17.57;;;;;;;;;;5010862;28;20660;-57
2023/10/27 12:41:19;;;;;;;22.03;18.37;;;;;;;;;;5008674;28;20042;-60
2023/10/27 12:43:44;;;;;;;23.25;18.15;;;;;;;;;;5010034;28;20496;-57
2023/10/27 12:46:10;;;;;;;22.42;19.77;;;;;;;;;;5009321;28;20026;-57
2023/10/27 12:48:35;;;;;;;18.47;16.43;;;;;;;;;;5010296;28;20025;-57
2023/10/27 12:51:01;;;;;;;19.43;16.07;;;;;;;;;;5007952;28;20072;-57
2023/10/27 12:53:27;;;;;;;19.17;17.15;;;;;;;;;;5010899;28;20444;-57
2023/10/27 12:55:52;;;;;;;24.77;18.45;;;;;;;;;;5008917;28;20383;-57
2023/10/27 12:58:17;;;;;;;24.83;17.90;;;;;;;;;;5010921;28;20030;-57
2023/10/27 13:00:42;;;;;;;24.07;18.10;;;;;;;;;;5009711;28;20033;-57
2023/10/27 13:03:07;;;;;;;22.80;17.63;;;;;;;;;;5010106;28;20468;-57
2023/10/27 13:05:34;;;;;;;25.58;17.08;;;;;;;;;;5008775;28;20812;-57
2023/10/27 13:08:01;;;;;;;24.00;18.90;;;;;;;;;;5011001;28;20101;-57
2023/10/27 13:10:26;;;;;;;21.02;18.77;;;;;;;;;;5009776;28;20026;-57
2023/10/27 13:13:00;;;;;;;21.45;17.20;;;;;;;;;;5008775;28;20025;-57
2023/10/27 13:15:25;;;;;;;23.23;20.25;;;;;;;;;;5003326;28;20041;-57
2023/10/27 13:17:50;;;;;;;23.97;19.17;;;;;;;;;;5011203;28;20022;-57
2023/10/27 13:20:17;;;;;;;21.30;17.87;;;;;;;;;;5008348;28;20374;-57
2023/10/27 13:22:42;;;;;;;21.27;18.98;;;;;;;;;;5010945;28;20429;-57
2023/10/27 13:25:08;;;;;;;23.23;20.65;;;;;;;;;;5009915;28;20038;-57
2023/10/27 13:27:34;;;;;;;27.45;21.10;;;;;;;;;;5013606;28;20026;-58
2023/10/27 13:30:04;;;;;;;23.73;20.13;;;;;;;;;;5011998;28;20894;-58
2023/10/27 13:32:30;;;;;;;22.00;19.55;;;;;;;;;;5014857;28;20053;-57
2023/10/27 13:34:55;;;;;;;28.30;20.80;;;;;;;;;;5012163;28;20076;-57
2023/10/27 13:37:20;;;;;;;32.15;22.85;;;;;;;;;;5014603;28;20353;-57
2023/10/27 13:39:46;;;;;;;27.98;21.70;;;;;;;;;;5012824;28;20054;-57
2023/10/27 13:42:12;;;;;;;26.35;21.08;;;;;;;;;;5013582;28;20429;-58
2023/10/27 13:44:38;;;;;;;32.13;20.58;;;;;;;;;;5013044;28;20026;-57
2023/10/27 13:47:04;;;;;;;24.67;21.83;;;;;;;;;;5014275;28;20025;-57
2023/10/27 13:49:29;;;;;;;27.48;23.13;;;;;;;;;;5012990;28;20025;-57
2023/10/27 13:51:54;;;;;;;26.90;21.17;;;;;;;;;;5012396;28;20061;-62
2023/10/27 13:54:21;;;;;;;26.08;22.35;;;;;;;;;;5014500;28;20508;-57
2023/10/27 13:56:46;;;;;;;26.33;20.60;;;;;;;;;;5011754;28;20042;-57
2023/10/27 13:59:11;;;;;;;28.07;23.20;;;;;;;;;;5013462;28;20462;-57
2023/10/27 14:01:38;;;;;;;31.03;23.23;;;;;;;;;;5011963;28;20125;-57
2023/10/27 14:04:06;;;;;;;36.25;23.33;;;;;;;;;;5012809;28;20568;-57
2023/10/27 14:06:32;;;;;;;27.90;22.02;;;;;;;;;;5012791;28;20516;-67
2023/10/27 14:08:57;;;;;;;29.30;22.70;;;;;;;;;;5013842;28;20462;-57